Time;durP1;ratioP1;P1;durP2;ratioP2;P2;SDS_P1;SDS_P2;PMS_P1;PMS_P2;Temp;Humidity;BMP_temperature;BMP_pressure;BME280_temperature;BME280_humidity;BME280_pressure;Samples;Min_cycle;Max_cycle;Signal;HPM_P1;HPM_P2
2023/06/30 00:00:26;;;;;;;10.45;8.07;;;;;;;19.46;70.93;99896.91;5131578;27;20207;-68
2023/06/30 00:02:55;;;;;;;12.82;9.68;;;;;;;19.44;70.81;99896.13;5130340;27;20248;-68
2023/06/30 00:05:25;;;;;;;12.93;8.75;;;;;;;19.42;70.87;99893.59;5131386;27;20199;-67
2023/06/30 00:07:58;;;;;;;11.35;9.57;;;;;;;19.43;70.98;99894.44;5131311;27;20791;-69
2023/06/30 00:10:26;;;;;;;11.80;9.35;;;;;;;19.42;70.80;99895.38;5131521;27;20572;-69
2023/06/30 00:12:54;;;;;;;12.93;9.57;;;;;;;19.39;70.36;99890.31;5129177;27;20280;-68
2023/06/30 00:15:22;;;;;;;16.60;9.75;;;;;;;19.36;70.68;99893.06;5125633;27;20191;-69
2023/06/30 00:17:52;;;;;;;12.75;8.70;;;;;;;19.36;70.69;99888.69;5129906;27;20195;-68
2023/06/30 00:20:21;;;;;;;13.15;7.57;;;;;;;19.34;70.71;99898.38;5130869;27;20256;-69
2023/06/30 00:22:49;;;;;;;14.15;7.32;;;;;;;19.34;70.75;99892.31;5131463;27;20283;-69
2023/06/30 00:25:19;;;;;;;8.35;5.82;;;;;;;19.34;70.80;99892.31;5131816;27;20251;-69
2023/06/30 00:27:47;;;;;;;9.45;5.75;;;;;;;19.31;70.66;99893.31;5130114;27;20199;-68
2023/06/30 00:30:15;;;;;;;7.68;5.28;;;;;;;19.28;70.80;99890.84;5128780;27;20203;-67
2023/06/30 00:32:43;;;;;;;6.32;3.92;;;;;;;19.26;70.73;99896.16;5123228;27;20204;-67
2023/06/30 00:35:11;;;;;;;4.22;3.83;;;;;;;19.21;70.76;99887.69;5129988;27;20203;-68
2023/06/30 00:37:39;;;;;;;4.00;3.60;;;;;;;19.19;70.59;99886.94;5131991;27;20693;-68
2023/06/30 00:40:08;;;;;;;3.70;3.35;;;;;;;19.18;70.54;99887.81;5131451;27;20199;-68
2023/06/30 00:42:41;;;;;;;5.07;3.50;;;;;;;19.16;70.72;99884.47;5129171;27;20235;-67
2023/06/30 00:45:11;;;;;;;4.30;3.65;;;;;;;19.17;70.37;99891.38;5130625;27;20195;-68
2023/06/30 00:47:39;;;;;;;5.82;4.30;;;;;;;19.17;70.50;99880.91;5132257;27;20199;-67
2023/06/30 00:50:08;;;;;;;4.32;3.92;;;;;;;19.18;71.02;99881.75;5132001;27;20658;-67
2023/06/30 00:52:36;;;;;;;4.15;3.75;;;;;;;19.14;71.14;99875.84;5127657;27;20636;-67
2023/06/30 00:55:06;;;;;;;4.10;3.70;;;;;;;19.10;71.20;99876.91;5131877;28;20216;-70
2023/06/30 00:57:34;;;;;;;3.70;3.40;;;;;;;19.08;71.04;99881.38;5128749;27;20631;-68
2023/06/30 01:00:10;;;;;;;3.80;3.45;;;;;;;19.08;70.71;99877.94;5131102;28;20208;-66
2023/06/30 01:02:44;;;;;;;3.80;3.45;;;;;;;19.04;70.24;99872.03;5130973;27;20626;-67
2023/06/30 01:05:25;;;;;;;5.28;3.35;;;;;;;19.00;70.53;99865.22;5134460;27;20199;-66
2023/06/30 01:08:00;;;;;;;5.47;3.85;;;;;;;19.00;70.54;99862.63;5128115;27;20203;-65
2023/06/30 01:10:30;;;;;;;3.30;3.00;;;;;;;18.98;70.41;99859.25;5128013;27;20597;-67
2023/06/30 01:13:00;;;;;;;4.68;3.65;;;;;;;18.98;70.31;99865.31;5129901;27;20267;-67
2023/06/30 01:15:31;;;;;;;3.38;3.08;;;;;;;18.97;70.14;99857.56;5128826;27;20199;-67
2023/06/30 01:18:01;;;;;;;4.18;2.92;;;;;;;18.94;70.04;99858.56;5130149;27;20617;-67
2023/06/30 01:20:32;;;;;;;4.35;3.33;;;;;;;18.94;70.00;99857.72;5126395;27;20207;-66
2023/06/30 01:23:10;;;;;;;4.13;3.17;;;;;;;18.90;69.90;99861.41;5135367;27;20584;-66
2023/06/30 01:25:39;;;;;;;3.03;2.83;;;;;;;18.85;69.92;99860.75;5127686;27;20585;-67
2023/06/30 01:28:09;;;;;;;3.47;3.17;;;;;;;18.81;69.89;99858.31;5129633;27;20195;-66
2023/06/30 01:30:39;;;;;;;3.72;3.30;;;;;;;18.79;70.32;99854.94;5137609;27;20207;-67
2023/06/30 01:33:07;;;;;;;3.70;3.15;;;;;;;18.75;69.92;99847.31;5138999;27;20222;-66
2023/06/30 01:35:35;;;;;;;4.30;3.53;;;;;;;18.73;70.29;99844.78;5134242;27;20203;-68
2023/06/30 01:38:04;;;;;;;4.68;3.47;;;;;;;18.73;70.46;99846.53;5130770;27;20199;-66
2023/06/30 01:40:33;;;;;;;4.25;3.42;;;;;;;18.72;70.56;99850.91;5134100;27;20256;-67
2023/06/30 01:43:01;;;;;;;4.30;3.90;;;;;;;18.71;70.95;99851.00;5135518;27;20272;-67
2023/06/30 01:45:30;;;;;;;4.75;3.75;;;;;;;18.69;70.80;99848.41;5132069;27;20555;-67
2023/06/30 01:48:00;;;;;;;3.80;3.50;;;;;;;18.68;70.53;99848.50;5133655;27;20272;-66
2023/06/30 01:50:29;;;;;;;4.03;3.60;;;;;;;18.67;70.39;99844.19;5133118;27;20205;-66
2023/06/30 01:52:58;;;;;;;4.40;3.92;;;;;;;18.62;70.53;99836.59;5129475;27;20210;-67
2023/06/30 01:55:27;;;;;;;4.03;3.72;;;;;;;18.57;70.49;99838.59;5140290;27;20214;-66
2023/06/30 01:57:55;;;;;;;4.97;4.00;;;;;;;18.51;70.39;99841.47;5132885;27;20196;-67
2023/06/30 02:00:23;;;;;;;4.45;4.05;;;;;;;18.46;70.53;99841.69;5128136;27;20255;-66
2023/06/30 02:02:51;;;;;;;3.95;3.65;;;;;;;18.44;70.85;99851.34;5130817;27;20213;-68
2023/06/30 02:05:20;;;;;;;4.53;3.92;;;;;;;18.38;71.21;99836.00;5135167;27;20242;-67
2023/06/30 02:07:49;;;;;;;5.00;4.35;;;;;;;18.41;70.84;99848.03;5133019;27;20192;-69
2023/06/30 02:10:17;;;;;;;4.20;3.80;;;;;;;18.37;70.77;99847.34;5132002;27;20591;-67
2023/06/30 02:12:45;;;;;;;4.32;3.92;;;;;;;18.35;70.88;99841.34;5131749;27;20231;-67
2023/06/30 02:15:13;;;;;;;3.97;3.63;;;;;;;18.33;70.73;99843.19;5133196;27;20581;-67
2023/06/30 02:17:41;;;;;;;4.57;4.18;;;;;;;18.30;70.74;99843.34;5131410;27;20203;-67
2023/06/30 02:20:12;;;;;;;4.32;3.88;;;;;;;18.27;70.74;99843.50;5132507;27;20230;-67
2023/06/30 02:22:42;;;;;;;5.75;4.00;;;;;;;18.23;70.78;99847.16;5132819;27;20231;-66
2023/06/30 02:25:10;;;;;;;4.68;4.28;;;;;;;18.21;70.99;99842.00;5133566;27;20274;-67
2023/06/30 02:27:38;;;;;;;7.22;4.43;;;;;;;18.20;71.15;99845.53;5127590;27;20199;-68
2023/06/30 02:30:08;;;;;;;5.90;4.22;;;;;;;18.21;71.19;99843.75;5136375;27;20221;-67
2023/06/30 02:32:38;;;;;;;5.22;4.57;;;;;;;18.20;70.95;99842.91;5132964;27;20712;-68
2023/06/30 02:35:07;;;;;;;4.43;4.07;;;;;;;18.18;71.01;99836.91;5128434;27;20246;-68
2023/06/30 02:37:36;;;;;;;4.65;4.00;;;;;;;18.15;70.75;99834.44;5134024;27;20633;-68
2023/06/30 02:40:08;;;;;;;6.13;4.50;;;;;;;18.17;71.14;99844.81;5135167;27;20199;-68
2023/06/30 02:42:36;;;;;;;5.05;4.65;;;;;;;18.16;70.90;99848.34;5132190;27;20642;-68
2023/06/30 02:45:06;;;;;;;4.72;4.32;;;;;;;18.13;70.79;99851.94;5133313;27;20199;-67
2023/06/30 02:47:34;;;;;;;6.13;4.43;;;;;;;18.08;70.84;99839.13;5132627;27;20203;-67
2023/06/30 02:50:02;;;;;;;4.80;4.30;;;;;;;18.10;71.03;99837.28;5130799;27;20223;-66
2023/06/30 02:52:30;;;;;;;5.18;4.78;;;;;;;18.08;70.84;99835.66;5133652;27;20203;-66
2023/06/30 02:54:59;;;;;;;6.57;4.70;;;;;;;18.10;70.71;99833.81;5129972;27;20305;-68
2023/06/30 02:57:28;;;;;;;5.05;4.65;;;;;;;18.10;70.74;99833.81;5133379;27;20666;-68
2023/06/30 02:59:57;;;;;;;7.80;5.15;;;;;;;18.09;70.65;99829.53;5134724;27;20282;-68
2023/06/30 03:02:26;;;;;;;5.45;4.85;;;;;;;18.10;70.44;99831.22;5133489;27;20199;-68
2023/06/30 03:04:55;;;;;;;6.28;4.65;;;;;;;18.07;69.80;99826.97;5131456;27;20280;-67
2023/06/30 03:07:23;;;;;;;5.75;5.20;;;;;;;18.06;70.32;99835.72;5131158;27;20218;-67
2023/06/30 03:09:52;;;;;;;5.63;4.97;;;;;;;18.07;70.36;99841.78;5134197;27;20614;-68
2023/06/30 03:12:20;;;;;;;5.15;4.60;;;;;;;18.07;70.41;99836.56;5129252;27;20230;-67
2023/06/30 03:14:49;;;;;;;5.70;5.20;;;;;;;18.08;70.17;99838.28;5129882;27;20346;-66
2023/06/30 03:17:18;;;;;;;5.93;5.25;;;;;;;18.09;70.15;99834.75;5130571;27;20226;-68
2023/06/30 03:19:46;;;;;;;8.20;5.38;;;;;;;18.10;70.13;99833.81;5139291;27;20231;-67
2023/06/30 03:22:14;;;;;;;6.93;5.10;;;;;;;18.06;70.32;99834.88;5130826;27;20226;-67
2023/06/30 03:24:42;;;;;;;7.15;5.20;;;;;;;18.05;70.46;99833.19;5130633;27;20234;-66
2023/06/30 03:27:10;;;;;;;5.47;4.97;;;;;;;18.06;70.04;99827.06;5130237;27;20195;-67
2023/06/30 03:29:39;;;;;;;7.18;5.45;;;;;;;18.05;70.34;99831.44;5134570;27;20255;-67
2023/06/30 03:32:09;;;;;;;6.05;5.45;;;;;;;18.07;70.17;99839.16;5135593;27;20633;-66
2023/06/30 03:34:37;;;;;;;7.68;5.90;;;;;;;18.07;70.10;99837.41;5127457;27;20218;-66
2023/06/30 03:37:05;;;;;;;7.35;6.65;;;;;;;18.04;70.09;99834.97;5128641;27;20246;-66
2023/06/30 03:39:33;;;;;;;7.85;6.30;;;;;;;18.04;69.99;99839.31;5133668;27;20613;-67
2023/06/30 03:42:02;;;;;;;6.63;6.03;;;;;;;18.03;69.82;99835.00;5132753;27;20556;-66
2023/06/30 03:44:30;;;;;;;6.88;6.22;;;;;;;18.02;69.66;99833.34;5136184;27;20206;-65
2023/06/30 03:46:59;;;;;;;6.90;5.97;;;;;;;18.00;69.60;99835.16;5130509;27;20200;-66
2023/06/30 03:49:29;;;;;;;6.95;6.13;;;;;;;18.01;69.62;99834.25;5131833;27;20203;-66
2023/06/30 03:51:57;;;;;;;7.63;6.53;;;;;;;18.00;69.30;99828.16;5130960;27;20602;-67
2023/06/30 03:54:25;;;;;;;6.20;5.70;;;;;;;18.03;69.27;99827.19;5127081;27;20214;-68
2023/06/30 03:56:53;;;;;;;6.47;5.90;;;;;;;18.07;69.44;99823.53;5128145;27;20207;-69
2023/06/30 03:59:21;;;;;;;6.50;5.65;;;;;;;18.12;69.14;99829.41;5133831;27;20226;-67
2023/06/30 04:01:49;;;;;;;8.13;6.00;;;;;;;18.08;69.05;99830.47;5128656;27;20204;-67
2023/06/30 04:04:18;;;;;;;7.15;6.07;;;;;;;18.08;69.14;99830.47;5137925;27;20196;-65
2023/06/30 04:06:47;;;;;;;7.10;6.40;;;;;;;18.08;69.10;99827.84;5132113;27;20357;-67
2023/06/30 04:09:16;;;;;;;10.60;6.75;;;;;;;18.10;69.05;99833.81;5129081;27;20244;-66
2023/06/30 04:11:44;;;;;;;8.10;6.43;;;;;;;18.13;69.17;99828.47;5128671;27;20584;-67
2023/06/30 04:14:12;;;;;;;6.72;5.60;;;;;;;18.21;69.24;99828.94;5130150;27;20617;-66
2023/06/30 04:16:40;;;;;;;7.47;5.88;;;;;;;18.24;68.48;99821.00;5128886;27;20203;-66
2023/06/30 04:19:09;;;;;;;7.28;6.20;;;;;;;18.29;68.35;99820.78;5129971;27;20271;-66
2023/06/30 04:21:37;;;;;;;10.23;6.15;;;;;;;18.34;68.28;99827.47;5138016;27;20203;-66
2023/06/30 04:24:08;;;;;;;7.70;6.10;;;;;;;18.45;68.24;99821.75;5131822;27;20208;-66
2023/06/30 04:26:36;;;;;;;7.88;6.15;;;;;;;18.64;67.83;99824.31;5128304;27;20661;-68
2023/06/30 04:29:04;;;;;;;9.35;5.63;;;;;;;18.89;67.45;99830.97;5132139;27;20575;-67
2023/06/30 04:31:32;;;;;;;6.78;5.53;;;;;;;19.13;66.53;99827.16;5130771;27;20256;-66
2023/06/30 04:34:00;;;;;;;7.50;6.03;;;;;;;19.34;65.56;99824.38;5129904;27;20206;-68
2023/06/30 04:36:29;;;;;;;6.97;5.65;;;;;;;19.54;64.80;99827.63;5130155;27;20226;-68
2023/06/30 04:38:57;;;;;;;9.05;6.80;;;;;;;19.70;63.67;99826.84;5129445;27;20233;-69
2023/06/30 04:41:27;;;;;;;7.72;6.03;;;;;;;19.75;62.77;99822.25;5129358;27;20203;-68
2023/06/30 04:43:55;;;;;;;6.70;6.10;;;;;;;19.76;62.42;99831.78;5132760;27;20282;-68
2023/06/30 04:46:25;;;;;;;6.80;6.20;;;;;;;19.79;62.28;99827.22;5125725;27;20204;-68
2023/06/30 04:48:55;;;;;;;8.50;6.70;;;;;;;19.86;62.04;99821.69;5127535;27;20203;-69
2023/06/30 04:51:23;;;;;;;9.30;6.03;;;;;;;19.96;62.28;99828.13;5121861;27;20222;-67
2023/06/30 04:53:51;;;;;;;6.95;5.85;;;;;;;20.21;61.59;99828.47;5120516;27;20222;-66
2023/06/30 04:56:19;;;;;;;6.47;5.70;;;;;;;20.39;60.72;99818.75;5121161;27;20211;-68
2023/06/30 04:58:50;;;;;;;7.00;6.00;;;;;;;20.62;60.35;99824.47;5129607;27;20625;-68
2023/06/30 05:01:18;;;;;;;8.07;6.03;;;;;;;20.86;59.71;99822.25;5131761;27;20544;-67
2023/06/30 05:03:47;;;;;;;6.68;5.55;;;;;;;21.15;59.16;99821.41;5129795;27;20199;-64
2023/06/30 05:06:15;;;;;;;9.43;5.72;;;;;;;21.43;58.27;99825.06;5132610;27;20231;-63
2023/06/30 05:08:43;;;;;;;6.43;5.53;;;;;;;21.67;57.78;99822.72;5129777;27;20231;-64
2023/06/30 05:11:12;;;;;;;7.68;6.05;;;;;;;21.93;56.89;99823.72;5132739;27;20489;-65
2023/06/30 05:13:40;;;;;;;7.78;5.90;;;;;;;22.15;56.13;99829.34;5130755;27;20290;-64
2023/06/30 05:16:11;;;;;;;6.68;6.03;;;;;;;22.33;55.23;99827.34;5129328;27;20221;-64
2023/06/30 05:18:40;;;;;;;9.20;5.85;;;;;;;22.45;55.28;99822.25;5130193;27;20248;-64
2023/06/30 05:21:08;;;;;;;5.95;5.10;;;;;;;22.70;54.65;99818.88;5131878;27;20678;-62
2023/06/30 05:23:36;;;;;;;6.03;5.28;;;;;;;23.02;54.22;99820.25;5137057;27;20238;-65
2023/06/30 05:26:06;;;;;;;7.70;6.07;;;;;;;23.31;53.53;99817.44;5131759;27;20545;-66
2023/06/30 05:28:36;;;;;;;8.52;5.15;;;;;;;23.61;52.40;99819.75;5130796;27;20191;-67
2023/06/30 05:31:04;;;;;;;5.80;5.20;;;;;;;23.85;51.54;99814.59;5130254;27;20199;-67
2023/06/30 05:33:34;;;;;;;9.00;5.65;;;;;;;24.11;51.09;99826.75;5130369;27;20206;-67
2023/06/30 05:36:02;;;;;;;7.10;5.85;;;;;;;24.34;50.20;99819.00;5132079;27;20582;-67
2023/06/30 05:38:30;;;;;;;6.60;5.43;;;;;;;24.53;49.49;99824.66;5131275;27;20717;-66
2023/06/30 05:40:58;;;;;;;7.90;4.93;;;;;;;24.69;49.02;99824.34;5137933;27;20602;-65
2023/06/30 05:43:26;;;;;;;7.80;4.95;;;;;;;24.62;48.52;99819.66;5134355;27;20195;-66
2023/06/30 05:45:55;;;;;;;7.10;4.90;;;;;;;24.72;48.72;99825.94;5136188;27;20195;-63
2023/06/30 05:48:23;;;;;;;5.38;4.85;;;;;;;24.93;48.27;99826.09;5131347;27;21801;-65
2023/06/30 05:50:52;;;;;;;6.13;5.43;;;;;;;25.17;47.44;99816.41;5127686;27;20196;-63
2023/06/30 05:53:21;;;;;;;5.97;4.82;;;;;;;25.40;47.29;99826.97;5128741;27;20299;-65
2023/06/30 05:55:50;;;;;;;4.93;4.43;;;;;;;25.48;46.12;99830.72;5124696;27;20221;-63
2023/06/30 05:58:18;;;;;;;5.10;4.43;;;;;;;25.26;46.32;99828.91;5128696;27;20693;-64
2023/06/30 06:00:46;;;;;;;7.65;4.25;;;;;;;25.27;46.50;99819.19;5134217;27;20668;-63
2023/06/30 06:03:15;;;;;;;4.43;4.03;;;;;;;25.40;46.19;99825.19;5130401;27;20207;-63
2023/06/30 06:05:43;;;;;;;6.47;4.47;;;;;;;25.48;45.56;99827.22;5126694;27;20802;-63
2023/06/30 06:08:13;;;;;;;4.80;3.97;;;;;;;25.57;45.59;99817.78;5137186;27;20207;-63
2023/06/30 06:10:41;;;;;;;5.47;4.55;;;;;;;25.66;45.23;99827.59;5131480;27;20290;-63
2023/06/30 06:13:09;;;;;;;4.68;3.80;;;;;;;25.77;44.90;99811.78;5134207;27;20203;-63
2023/06/30 06:15:38;;;;;;;7.30;4.07;;;;;;;25.98;44.43;99818.03;5133769;27;20199;-63
2023/06/30 06:18:06;;;;;;;7.38;4.00;;;;;;;26.30;43.94;99817.28;5134785;27;20203;-63
2023/06/30 06:20:34;;;;;;;4.63;3.72;;;;;;;26.61;43.29;99820.06;5133757;27;20282;-63
2023/06/30 06:23:02;;;;;;;7.38;3.90;;;;;;;26.73;42.98;99813.78;5130905;27;20206;-64
2023/06/30 06:25:32;;;;;;;4.28;3.10;;;;;;;26.53;41.40;99819.88;5138461;27;20560;-64
2023/06/30 06:28:00;;;;;;;5.10;3.95;;;;;;;26.09;42.85;99824.28;5132530;27;20282;-62
2023/06/30 06:30:28;;;;;;;5.20;3.70;;;;;;;26.08;42.98;99817.31;5134182;27;20211;-62
2023/06/30 06:32:56;;;;;;;6.78;4.07;;;;;;;26.38;42.80;99814.84;5134205;27;20199;-61
2023/06/30 06:35:24;;;;;;;4.97;3.60;;;;;;;26.79;41.68;99818.56;5134391;27;20265;-63
2023/06/30 06:37:52;;;;;;;6.50;3.47;;;;;;;27.16;40.57;99820.81;5134192;27;20253;-64
2023/06/30 06:40:20;;;;;;;7.40;3.53;;;;;;;27.22;39.77;99817.66;5131637;27;20199;-62
2023/06/30 06:42:50;;;;;;;4.75;3.47;;;;;;;27.27;39.58;99811.97;5132106;27;20206;-64
2023/06/30 06:45:18;;;;;;;7.80;3.42;;;;;;;27.37;39.28;99819.00;5124473;27;20203;-63
2023/06/30 06:48:19;;;;;;;3.80;3.40;;;;;;;27.40;38.05;99813.44;5127871;27;20206;-63
2023/06/30 06:50:48;;;;;;;4.18;3.42;;;;;;;27.53;38.25;99817.69;5130465;27;20684;-63
2023/06/30 06:53:22;;;;;;;4.45;3.15;;;;;;;27.70;38.08;99817.91;5133462;27;20207;-62
2023/06/30 06:55:52;;;;;;;4.78;3.28;;;;;;;28.16;37.67;99819.19;5125447;27;20199;-64
2023/06/30 06:58:22;;;;;;;7.75;3.15;;;;;;;28.58;36.52;99818.19;5132448;27;20216;-63
2023/06/30 07:00:53;;;;;;;4.78;2.92;;;;;;;28.80;36.18;99820.56;5120665;27;20397;-63
2023/06/30 07:03:21;;;;;;;4.47;3.40;;;;;;;28.83;35.11;99817.63;5128283;27;20203;-64
2023/06/30 07:05:49;;;;;;;4.60;3.08;;;;;;;29.09;34.75;99820.56;5136868;27;20568;-63
2023/06/30 07:08:18;;;;;;;4.53;2.85;;;;;;;29.52;34.72;99818.34;5133040;27;20557;-64
2023/06/30 07:10:47;;;;;;;4.80;2.90;;;;;;;29.93;34.37;99801.13;5133415;27;20203;-62
2023/06/30 07:13:18;;;;;;;4.72;3.08;;;;;;;30.31;33.57;99796.63;5134223;27;20246;-62
2023/06/30 07:15:48;;;;;;;5.53;3.35;;;;;;;30.54;32.80;99802.31;5126614;27;20207;-63
2023/06/30 07:18:17;;;;;;;3.13;2.53;;;;;;;30.40;32.11;99800.19;5127586;27;20715;-62
2023/06/30 07:20:47;;;;;;;3.88;2.70;;;;;;;30.48;31.66;99802.91;5136283;27;20199;-61
2023/06/30 07:23:15;;;;;;;11.77;2.90;;;;;;;30.64;31.57;99803.06;5132258;27;20207;-61
2023/06/30 07:25:44;;;;;;;7.80;2.83;;;;;;;30.86;32.20;99801.78;5126658;27;20195;-61
2023/06/30 07:28:13;;;;;;;4.70;2.85;;;;;;;31.17;31.46;99798.69;5123929;27;20194;-62
2023/06/30 07:30:42;;;;;;;6.60;3.35;;;;;;;31.27;31.70;99799.41;5129085;27;20199;-61
2023/06/30 07:33:14;;;;;;;4.97;2.67;;;;;;;30.92;30.97;99803.00;5127400;27;20195;-61
2023/06/30 07:35:42;;;;;;;4.53;2.67;;;;;;;30.06;32.58;99812.25;5132897;27;20218;-61
2023/06/30 07:38:11;;;;;;;5.18;2.80;;;;;;;29.41;34.26;99807.91;5130875;27;20659;-61
2023/06/30 07:40:39;;;;;;;10.70;2.90;;;;;;;28.83;34.93;99801.72;5130233;27;20203;-61
2023/06/30 07:43:23;;;;;;;5.03;2.83;;;;;;;28.34;35.51;99803.47;5131159;27;20195;-61
2023/06/30 07:45:51;;;;;;;3.10;2.58;;;;;;;27.74;36.77;99805.22;5128348;27;20199;-61
2023/06/30 07:48:21;;;;;;;4.45;3.08;;;;;;;27.31;37.67;99798.34;5131172;27;20206;-60
2023/06/30 07:50:49;;;;;;;3.05;2.25;;;;;;;27.16;38.56;99795.19;5130058;27;20261;-61
2023/06/30 07:53:34;;;;;;;7.85;3.10;;;;;;;27.60;37.54;99795.00;5134734;27;20201;-62
2023/06/30 07:56:02;;;;;;;4.22;2.75;;;;;;;27.77;36.81;99794.41;5121834;27;20207;-61
2023/06/30 07:58:32;;;;;;;5.53;3.20;;;;;;;27.88;36.90;99790.84;5128667;27;20268;-61
2023/06/30 08:01:00;;;;;;;4.68;3.05;;;;;;;27.94;37.65;99799.03;5131586;27;20203;-62
2023/06/30 08:03:30;;;;;;;4.10;2.50;;;;;;;27.88;37.12;99791.66;5127348;27;20203;-61
2023/06/30 08:05:58;;;;;;;4.43;2.58;;;;;;;27.83;36.77;99793.84;5119025;27;20246;-62
2023/06/30 08:08:27;;;;;;;4.10;2.00;;;;;;;27.54;37.05;99788.41;5122496;27;20195;-61
2023/06/30 08:10:55;;;;;;;4.70;2.22;;;;;;;27.30;37.10;99786.09;5121247;27;20238;-60
2023/06/30 08:13:23;;;;;;;4.57;1.92;;;;;;;27.23;36.96;99784.94;5124823;27;20202;-61
2023/06/30 08:15:51;;;;;;;5.85;2.50;;;;;;;27.03;36.92;99793.66;5127622;27;20565;-61
2023/06/30 08:18:20;;;;;;;3.15;2.13;;;;;;;27.01;37.21;99791.16;5120945;27;20580;-60
2023/06/30 08:21:02;;;;;;;6.43;2.20;;;;;;;27.04;37.62;99775.06;5121675;27;20210;-61
2023/06/30 08:23:30;;;;;;;5.13;2.15;;;;;;;27.11;37.31;99778.03;5125942;27;20643;-60
2023/06/30 08:25:58;;;;;;;2.63;2.22;;;;;;;27.06;37.86;99782.84;5129898;27;20565;-61
2023/06/30 08:28:26;;;;;;;3.20;1.85;;;;;;;26.93;37.80;99783.06;5125555;27;20218;-62
2023/06/30 08:30:54;;;;;;;5.40;2.20;;;;;;;26.73;36.27;99771.47;5131620;27;20203;-60
2023/06/30 08:33:27;;;;;;;5.40;1.98;;;;;;;26.53;37.54;99774.94;5129259;27;20248;-62
2023/06/30 08:36:09;;;;;;;1.70;1.60;;;;;;;26.50;36.85;99771.59;5130291;27;20271;-61
2023/06/30 08:38:37;;;;;;;2.45;2.20;;;;;;;26.64;37.52;99772.25;5131232;27;20243;-61
2023/06/30 08:41:05;;;;;;;2.58;1.77;;;;;;;26.80;36.35;99769.16;5127584;27;20213;-60
2023/06/30 08:43:33;;;;;;;5.35;1.95;;;;;;;26.76;35.52;99759.81;5128707;27;20615;-61
2023/06/30 08:46:04;;;;;;;5.88;1.90;;;;;;;26.65;36.54;99774.75;5131281;27;20210;-62
2023/06/30 08:48:32;;;;;;;2.30;2.08;;;;;;;26.67;36.29;99777.28;5126947;27;20260;-61
2023/06/30 08:51:01;;;;;;;3.75;1.80;;;;;;;26.89;36.10;99771.88;5127628;27;20573;-62
2023/06/30 08:53:31;;;;;;;3.15;1.90;;;;;;;27.19;35.41;99768.47;5123810;27;20626;-61
2023/06/30 08:56:00;;;;;;;5.85;1.95;;;;;;;27.42;34.89;99768.31;5126828;28;20207;-60
2023/06/30 08:58:29;;;;;;;2.83;1.95;;;;;;;27.59;34.02;99769.50;5123381;27;20294;-60
2023/06/30 09:00:57;;;;;;;2.42;1.60;;;;;;;27.43;33.40;99765.56;5131048;28;20690;-60
2023/06/30 09:03:26;;;;;;;3.90;2.05;;;;;;;27.17;34.53;99764.28;5130372;27;20269;-60
2023/06/30 09:05:56;;;;;;;2.13;1.92;;;;;;;27.14;35.03;99754.00;5125473;27;20204;-61
2023/06/30 09:08:29;;;;;;;2.45;1.77;;;;;;;27.16;35.33;99758.16;5131014;27;20615;-62
2023/06/30 09:11:04;;;;;;;3.17;1.92;;;;;;;27.02;35.41;99757.63;5125951;27;20210;-61
2023/06/30 09:13:34;;;;;;;2.63;2.05;;;;;;;26.93;35.75;99746.88;5126830;27;20317;-62
2023/06/30 09:16:06;;;;;;;4.22;1.92;;;;;;;26.79;35.57;99744.53;5126158;28;20570;-61
2023/06/30 09:18:34;;;;;;;2.00;1.60;;;;;;;26.86;34.63;99748.34;5124198;27;20219;-61
2023/06/30 09:21:04;;;;;;;2.20;1.88;;;;;;;26.84;33.54;99744.16;5128613;28;20658;-62
2023/06/30 09:23:34;;;;;;;3.00;1.80;;;;;;;26.73;33.70;99739.75;5127803;27;20248;-62
2023/06/30 09:26:11;;;;;;;2.08;1.65;;;;;;;26.78;33.79;99737.59;5127550;27;20234;-61
2023/06/30 09:28:42;;;;;;;2.70;1.48;;;;;;;26.91;33.51;99738.22;5126983;27;20662;-60
2023/06/30 09:31:10;;;;;;;4.55;1.83;;;;;;;27.02;32.22;99739.94;5127829;27;20196;-60
2023/06/30 09:33:39;;;;;;;4.57;2.03;;;;;;;27.13;33.03;99733.78;5122867;27;20203;-61
2023/06/30 09:36:07;;;;;;;3.80;1.98;;;;;;;27.21;33.66;99733.94;5140298;27;20624;-60
2023/06/30 09:38:36;;;;;;;2.78;1.90;;;;;;;27.24;34.21;99735.50;5126678;27;20239;-60
2023/06/30 09:41:20;;;;;;;3.45;2.10;;;;;;;27.17;33.88;99743.13;5128308;27;20203;-60
2023/06/30 09:43:48;;;;;;;3.83;1.77;;;;;;;26.92;33.80;99747.84;5128848;27;20568;-62
2023/06/30 09:46:20;;;;;;;4.45;2.00;;;;;;;26.63;34.53;99750.28;5125955;27;20207;-61
2023/06/30 09:48:54;;;;;;;2.83;1.85;;;;;;;26.80;34.84;99743.56;5126162;27;20224;-61
2023/06/30 09:51:23;;;;;;;2.10;1.85;;;;;;;27.29;34.01;99738.63;5129922;27;20203;-62
2023/06/30 09:53:53;;;;;;;3.22;1.80;;;;;;;27.73;32.79;99733.88;5133372;27;20738;-61
2023/06/30 09:56:23;;;;;;;3.72;1.92;;;;;;;28.37;32.37;99733.44;5125749;27;20196;-61
2023/06/30 09:58:56;;;;;;;2.17;1.73;;;;;;;28.55;31.83;99730.97;5133075;27;20566;-62
2023/06/30 10:01:25;;;;;;;2.70;1.58;;;;;;;28.22;32.05;99730.38;5135138;27;20237;-60
2023/06/30 10:03:54;;;;;;;2.20;1.55;;;;;;;27.73;33.05;99732.09;5133181;27;20195;-61
2023/06/30 10:06:24;;;;;;;5.50;2.60;;;;;;;27.33;33.67;99740.84;5129999;27;20218;-62
2023/06/30 10:08:52;;;;;;;5.65;1.80;;;;;;;27.53;33.95;99733.81;5127769;27;20195;-61
2023/06/30 10:11:24;;;;;;;3.60;1.85;;;;;;;28.72;30.92;99721.44;5127880;27;20213;-63
2023/06/30 10:13:55;;;;;;;6.85;2.30;;;;;;;30.42;29.59;99721.94;5129486;27;20222;-62
2023/06/30 10:16:23;;;;;;;3.25;1.67;;;;;;;32.15;25.40;99708.56;5127975;27;20298;-61
2023/06/30 10:18:52;;;;;;;4.80;1.52;;;;;;;33.53;24.51;99710.22;5133026;27;20302;-60
2023/06/30 10:21:20;;;;;;;3.30;1.58;;;;;;;34.85;22.66;99698.41;5122871;27;20260;-60
2023/06/30 10:23:50;;;;;;;3.22;1.67;;;;;;;35.88;21.12;99707.41;5129424;27;20620;-61
2023/06/30 10:26:20;;;;;;;2.85;1.50;;;;;;;36.83;19.91;99690.13;5124653;27;20214;-61
2023/06/30 10:28:50;;;;;;;5.60;1.67;;;;;;;37.71;19.05;99701.13;5124913;27;20200;-61
2023/06/30 10:31:19;;;;;;;1.92;1.40;;;;;;;38.21;19.08;99698.94;5120333;27;20376;-60
2023/06/30 10:33:47;;;;;;;1.50;1.30;;;;;;;37.38;18.79;99698.28;5129245;27;20200;-62
2023/06/30 10:36:17;;;;;;;2.55;1.50;;;;;;;35.27;21.29;99696.13;5132739;27;20277;-60
2023/06/30 10:38:46;;;;;;;3.15;1.63;;;;;;;33.36;23.13;99704.09;5130802;27;20255;-61
2023/06/30 10:41:19;;;;;;;5.10;1.58;;;;;;;31.79;25.12;99699.97;5130437;27;20554;-60
2023/06/30 10:44:08;;;;;;;3.22;1.52;;;;;;;31.14;27.27;99692.53;5129894;27;20191;-60
2023/06/30 10:47:00;;;;;;;2.58;1.85;;;;;;;32.93;25.74;99692.03;5131347;27;20199;-59
2023/06/30 10:49:30;;;;;;;2.33;1.67;;;;;;;33.54;23.30;99684.31;5122854;27;20293;-60
2023/06/30 10:52:00;;;;;;;2.20;1.60;;;;;;;32.32;24.43;99683.53;5124734;27;20238;-59
2023/06/30 10:54:38;;;;;;;2.95;2.08;;;;;;;32.47;25.30;99681.06;5130719;27;20199;-61
2023/06/30 10:57:09;;;;;;;1.77;1.63;;;;;;;33.11;24.86;99675.81;5118613;27;20198;-59
2023/06/30 10:59:40;;;;;;;3.55;1.70;;;;;;;34.58;23.04;99678.44;5130180;27;20247;-61
2023/06/30 11:02:22;;;;;;;1.80;1.70;;;;;;;36.09;20.97;99673.59;5126931;27;20248;-61
2023/06/30 11:04:53;;;;;;;1.73;1.42;;;;;;;37.32;20.06;99667.66;5124936;27;20568;-60
2023/06/30 11:07:25;;;;;;;1.42;1.33;;;;;;;38.13;18.22;99654.25;5130624;27;20297;-61
2023/06/30 11:09:59;;;;;;;2.03;1.60;;;;;;;38.57;17.73;99668.13;5125931;27;20220;-61
2023/06/30 11:12:28;;;;;;;1.60;1.30;;;;;;;38.58;17.21;99667.91;5125472;27;20192;-60
2023/06/30 11:15:00;;;;;;;1.92;1.40;;;;;;;38.32;17.91;99660.66;5127294;27;20641;-60
2023/06/30 11:17:48;;;;;;;2.65;1.48;;;;;;;38.06;17.88;99663.34;5131236;27;20575;-61
2023/06/30 11:20:16;;;;;;;1.98;1.42;;;;;;;37.48;18.20;99656.56;5131126;27;20234;-61
2023/06/30 11:22:57;;;;;;;3.90;1.70;;;;;;;36.29;19.14;99666.56;5129736;27;20210;-61
2023/06/30 11:25:25;;;;;;;1.67;1.58;;;;;;;34.03;21.29;99670.72;5129422;27;20206;-62
2023/06/30 11:27:53;;;;;;;2.70;1.65;;;;;;;32.77;22.95;99660.03;5124821;27;20215;-61
2023/06/30 11:30:23;;;;;;;2.10;1.40;;;;;;;32.64;23.86;99656.06;5128668;27;20536;-60
2023/06/30 11:32:57;;;;;;;4.57;1.33;;;;;;;33.40;22.19;99643.16;5131393;27;20307;-61
2023/06/30 11:35:26;;;;;;;1.83;1.40;;;;;;;34.13;21.54;99642.72;5129414;27;20234;-61
2023/06/30 11:37:54;;;;;;;4.50;1.70;;;;;;;34.54;20.77;99645.06;5126317;27;20309;-61
2023/06/30 11:40:23;;;;;;;4.32;1.98;;;;;;;34.63;21.14;99627.06;5130677;27;20276;-62
2023/06/30 11:42:52;;;;;;;1.55;1.45;;;;;;;34.98;20.51;99628.16;5127053;27;20582;-61
2023/06/30 11:45:27;;;;;;;2.60;1.40;;;;;;;35.25;20.44;99633.88;5127969;27;20196;-61